Time;durP1;ratioP1;P1;durP2;ratioP2;P2;SDS_P1;SDS_P2;PMS_P1;PMS_P2;Temp;Humidity;BMP_temperature;BMP_pressure;BME280_temperature;BME280_humidity;BME280_pressure;Samples;Min_cycle;Max_cycle;Signal;HPM_P1;HPM_P2
2023/03/16 00:00:48;;;;;;;1.90;1.80;;;;;;;;;;4967952;28;20038;-79
2023/03/16 00:03:20;;;;;;;2.30;2.08;;;;;;;;;;5001021;28;20029;-80
2023/03/16 00:05:47;;;;;;;1.92;1.60;;;;;;;;;;4999781;28;20027;-79
2023/03/16 00:08:14;;;;;;;1.80;1.70;;;;;;;;;;4999874;28;20023;-80
2023/03/16 00:10:45;;;;;;;1.92;1.73;;;;;;;;;;5007894;28;20163;-79
2023/03/16 00:13:11;;;;;;;2.22;1.75;;;;;;;;;;5019560;28;20505;-78
2023/03/16 00:15:37;;;;;;;2.28;1.95;;;;;;;;;;5019941;28;20025;-80
2023/03/16 00:18:03;;;;;;;2.03;1.83;;;;;;;;;;5019032;28;20034;-78
2023/03/16 00:20:30;;;;;;;2.15;1.88;;;;;;;;;;5019955;28;20072;-79
2023/03/16 00:22:56;;;;;;;1.92;1.77;;;;;;;;;;5019187;28;20446;-79
2023/03/16 00:25:23;;;;;;;2.92;1.80;;;;;;;;;;5019301;28;20033;-79
2023/03/16 00:27:49;;;;;;;1.83;1.70;;;;;;;;;;5020247;28;20526;-79
2023/03/16 00:30:15;;;;;;;1.80;1.70;;;;;;;;;;5019483;28;20074;-79
2023/03/16 00:32:42;;;;;;;1.70;1.60;;;;;;;;;;5002828;28;20060;-79
2023/03/16 00:35:08;;;;;;;2.75;1.75;;;;;;;;;;5019632;28;20406;-79
2023/03/16 00:37:35;;;;;;;1.70;1.60;;;;;;;;;;5019834;28;20029;-79
2023/03/16 00:40:02;;;;;;;2.03;1.70;;;;;;;;;;5000747;28;20026;-79
2023/03/16 00:42:30;;;;;;;1.73;1.63;;;;;;;;;;5012849;28;20112;-79
2023/03/16 00:44:57;;;;;;;2.03;1.83;;;;;;;;;;5019583;28;20073;-79
2023/03/16 00:47:28;;;;;;;2.00;1.80;;;;;;;;;;5018847;28;20052;-80
2023/03/16 00:49:54;;;;;;;1.90;1.75;;;;;;;;;;5020393;28;20022;-78
2023/03/16 00:52:21;;;;;;;1.88;1.70;;;;;;;;;;5019049;28;20033;-80
2023/03/16 00:54:47;;;;;;;1.50;1.40;;;;;;;;;;5019707;28;20660;-80
2023/03/16 00:57:17;;;;;;;1.58;1.48;;;;;;;;;;5019401;28;20096;-79
2023/03/16 00:59:43;;;;;;;1.83;1.73;;;;;;;;;;5020900;28;20060;-79
2023/03/16 01:02:11;;;;;;;1.80;1.70;;;;;;;;;;5019368;28;20116;-79
2023/03/16 01:04:38;;;;;;;1.45;1.40;;;;;;;;;;5019242;28;20037;-78
2023/03/16 01:07:05;;;;;;;1.48;1.38;;;;;;;;;;5000665;28;20494;-78
2023/03/16 01:09:35;;;;;;;1.50;1.35;;;;;;;;;;5018664;28;20026;-79
2023/03/16 01:12:12;;;;;;;1.58;1.48;;;;;;;;;;5001440;28;20076;-79
2023/03/16 01:14:38;;;;;;;1.52;1.42;;;;;;;;;;5018673;28;20017;-79
2023/03/16 01:17:07;;;;;;;3.45;1.45;;;;;;;;;;5001288;28;20029;-80
2023/03/16 01:19:34;;;;;;;1.48;1.38;;;;;;;;;;5002223;28;20018;-79
2023/03/16 01:22:01;;;;;;;1.50;1.40;;;;;;;;;;5001374;28;20022;-79
2023/03/16 01:30:59;;;;;;;1.50;1.40;;;;;;;;;;5000728;28;20077;-79
2023/03/16 01:36:28;;;;;;;1.80;1.70;;;;;;;;;;5000515;28;20031;-80
2023/03/16 01:38:54;;;;;;;2.10;1.90;;;;;;;;;;5012162;28;20478;-79
2023/03/16 01:41:21;;;;;;;1.65;1.55;;;;;;;;;;5018475;28;20032;-79
2023/03/16 01:43:47;;;;;;;1.63;1.52;;;;;;;;;;5018655;28;20041;-78
2023/03/16 01:46:18;;;;;;;1.88;1.70;;;;;;;;;;5018996;28;20529;-79
2023/03/16 01:48:47;;;;;;;2.13;1.80;;;;;;;;;;5018933;28;20018;-79
2023/03/16 01:54:22;;;;;;;1.63;1.52;;;;;;;;;;5018788;28;20106;-79
2023/03/16 01:57:06;;;;;;;5.10;1.92;;;;;;;;;;5018100;28;20026;-79
2023/03/16 01:59:36;;;;;;;3.85;1.90;;;;;;;;;;5017935;28;20021;-79
2023/03/16 02:02:02;;;;;;;1.60;1.50;;;;;;;;;;5017948;28;20022;-79
2023/03/16 02:04:36;;;;;;;2.35;1.77;;;;;;;;;;5018450;28;20359;-79
2023/03/16 02:07:03;;;;;;;3.75;2.22;;;;;;;;;;5016586;28;20069;-79
2023/03/16 02:09:29;;;;;;;1.75;1.50;;;;;;;;;;5019010;28;20022;-79
2023/03/16 02:11:56;;;;;;;2.45;2.22;;;;;;;;;;5017384;28;20029;-79
2023/03/16 02:14:23;;;;;;;5.18;1.80;;;;;;;;;;4992640;28;20033;-79
2023/03/16 02:16:50;;;;;;;6.15;1.90;;;;;;;;;;4998860;28;20027;-79
2023/03/16 02:19:19;;;;;;;3.47;1.90;;;;;;;;;;4997760;28;20022;-78
2023/03/16 02:21:53;;;;;;;3.95;1.88;;;;;;;;;;4981281;28;20026;-79
2023/03/16 02:24:20;;;;;;;7.05;2.10;;;;;;;;;;4998410;28;20018;-79
2023/03/16 02:26:48;;;;;;;7.05;3.20;;;;;;;;;;5002346;28;20383;-79
2023/03/16 02:29:20;;;;;;;8.77;2.95;;;;;;;;;;5018592;28;20026;-79
2023/03/16 02:31:47;;;;;;;4.65;2.35;;;;;;;;;;5018476;28;20025;-79
2023/03/16 02:34:14;;;;;;;7.30;2.22;;;;;;;;;;5018585;28;20026;-79
2023/03/16 02:36:41;;;;;;;5.95;2.20;;;;;;;;;;5018622;28;20054;-79
2023/03/16 02:39:07;;;;;;;4.22;2.97;;;;;;;;;;5018794;28;20469;-78
2023/03/16 02:41:33;;;;;;;5.45;2.50;;;;;;;;;;5022221;28;20117;-78
2023/03/16 02:44:23;;;;;;;10.63;3.13;;;;;;;;;;5004615;28;20026;-79
2023/03/16 02:46:51;;;;;;;9.98;2.75;;;;;;;;;;5032627;28;20028;-79
2023/03/16 02:49:23;;;;;;;8.40;2.53;;;;;;;;;;5005224;28;20033;-78
2023/03/16 02:51:50;;;;;;;6.45;3.00;;;;;;;;;;5002516;28;20026;-79
2023/03/16 02:54:16;;;;;;;7.00;2.95;;;;;;;;;;5002006;28;20018;-79
2023/03/16 02:56:42;;;;;;;6.93;2.47;;;;;;;;;;5014977;28;20033;-79
2023/03/16 02:59:08;;;;;;;7.28;2.50;;;;;;;;;;5014198;28;20026;-79
2023/03/16 03:01:35;;;;;;;8.13;2.55;;;;;;;;;;5001584;28;20022;-79
2023/03/16 03:04:02;;;;;;;7.25;2.70;;;;;;;;;;5011408;28;20053;-80
2023/03/16 03:06:28;;;;;;;6.78;3.28;;;;;;;;;;5005424;28;20022;-79
2023/03/16 03:08:55;;;;;;;7.13;2.78;;;;;;;;;;5000603;28;20050;-79
2023/03/16 03:11:21;;;;;;;9.32;2.63;;;;;;;;;;5011472;28;20025;-79
2023/03/16 03:16:51;;;;;;;6.75;2.53;;;;;;;;;;5003149;28;20374;-79
2023/03/16 03:19:17;;;;;;;7.40;2.50;;;;;;;;;;5015005;28;20524;-79
2023/03/16 03:21:44;;;;;;;3.67;2.13;;;;;;;;;;5011739;28;20398;-79
2023/03/16 03:24:10;;;;;;;6.18;2.20;;;;;;;;;;5020325;28;20168;-79
2023/03/16 03:26:37;;;;;;;10.13;2.55;;;;;;;;;;5002677;28;20022;-79
2023/03/16 03:29:03;;;;;;;9.07;2.58;;;;;;;;;;5001872;28;20045;-79
2023/03/16 03:31:29;;;;;;;5.45;2.05;;;;;;;;;;5002385;28;20077;-79
2023/03/16 03:40:19;;;;;;;4.00;1.92;;;;;;;;;;5021628;28;20561;-79
2023/03/16 03:42:45;;;;;;;2.72;1.98;;;;;;;;;;5021551;28;20093;-79
2023/03/16 03:45:12;;;;;;;3.78;1.75;;;;;;;;;;5003945;28;20022;-79
2023/03/16 03:47:39;;;;;;;4.50;1.67;;;;;;;;;;5003791;28;20363;-80
2023/03/16 03:53:09;;;;;;;4.40;2.00;;;;;;;;;;5005658;28;20448;-80
2023/03/16 03:55:35;;;;;;;5.15;2.40;;;;;;;;;;5002294;28;20101;-78
2023/03/16 03:58:01;;;;;;;3.55;1.65;;;;;;;;;;5009409;28;20118;-80
2023/03/16 04:00:27;;;;;;;2.90;1.92;;;;;;;;;;5020814;28;20101;-80
2023/03/16 04:02:53;;;;;;;5.35;2.08;;;;;;;;;;4996374;28;20038;-79
2023/03/16 04:05:20;;;;;;;3.75;1.65;;;;;;;;;;5001276;28;20033;-79
2023/03/16 04:07:47;;;;;;;6.32;1.90;;;;;;;;;;5000947;28;20021;-79
2023/03/16 04:10:13;;;;;;;4.10;1.70;;;;;;;;;;5017037;28;20454;-78
2023/03/16 04:12:39;;;;;;;2.65;1.63;;;;;;;;;;5019987;28;20057;-80
2023/03/16 04:15:06;;;;;;;3.47;1.98;;;;;;;;;;5020638;28;20514;-79
2023/03/16 04:17:33;;;;;;;4.75;2.30;;;;;;;;;;5019825;28;20089;-79
2023/03/16 04:20:00;;;;;;;4.82;2.13;;;;;;;;;;5020441;28;20026;-79
2023/03/16 04:22:29;;;;;;;6.47;2.30;;;;;;;;;;5020546;28;20022;-79
2023/03/16 04:24:55;;;;;;;3.20;2.08;;;;;;;;;;5017792;28;20034;-80
2023/03/16 04:27:21;;;;;;;6.13;1.90;;;;;;;;;;5015737;28;20017;-79
2023/03/16 04:29:47;;;;;;;4.18;2.28;;;;;;;;;;4999535;28;20034;-79
2023/03/16 04:32:14;;;;;;;6.25;2.75;;;;;;;;;;5001196;28;20033;-79
2023/03/16 04:34:42;;;;;;;3.80;2.00;;;;;;;;;;5013963;28;20089;-79
2023/03/16 04:37:08;;;;;;;4.78;1.67;;;;;;;;;;5001451;28;20030;-80
2023/03/16 04:39:34;;;;;;;3.85;1.90;;;;;;;;;;5016160;28;20030;-79
2023/03/16 04:42:00;;;;;;;7.50;2.13;;;;;;;;;;5009489;28;20073;-80
2023/03/16 04:44:27;;;;;;;4.78;1.73;;;;;;;;;;5021033;28;20352;-80
2023/03/16 04:46:53;;;;;;;7.22;2.10;;;;;;;;;;5002952;28;20105;-80
2023/03/16 04:49:19;;;;;;;6.13;1.90;;;;;;;;;;5020533;28;20026;-80
2023/03/16 04:51:45;;;;;;;4.20;1.83;;;;;;;;;;5021529;28;20017;-79
2023/03/16 04:54:11;;;;;;;6.25;2.63;;;;;;;;;;5003287;28;20026;-79
2023/03/16 04:56:40;;;;;;;5.97;1.77;;;;;;;;;;5002643;28;20026;-78
2023/03/16 04:59:06;;;;;;;5.30;1.90;;;;;;;;;;5020433;28;20025;-79
2023/03/16 05:01:32;;;;;;;3.08;1.70;;;;;;;;;;5002597;28;20022;-81
2023/03/16 05:03:58;;;;;;;3.85;1.80;;;;;;;;;;5019827;28;20114;-80
2023/03/16 05:06:24;;;;;;;4.22;1.83;;;;;;;;;;5020159;28;20022;-81
2023/03/16 05:08:50;;;;;;;4.38;2.10;;;;;;;;;;5020150;28;20025;-79
2023/03/16 05:11:16;;;;;;;5.05;2.10;;;;;;;;;;5002381;28;20418;-78
2023/03/16 05:13:42;;;;;;;3.20;1.90;;;;;;;;;;5025627;28;20490;-79
2023/03/16 05:16:09;;;;;;;2.70;1.75;;;;;;;;;;5026558;28;20032;-79
2023/03/16 05:21:38;;;;;;;2.90;1.70;;;;;;;;;;5019549;28;20428;-79
2023/03/16 05:24:05;;;;;;;4.82;1.85;;;;;;;;;;5018993;28;20053;-79
2023/03/16 05:26:32;;;;;;;3.08;2.03;;;;;;;;;;5016287;28;20026;-79
2023/03/16 05:28:58;;;;;;;2.95;1.77;;;;;;;;;;5019948;28;20018;-79
2023/03/16 05:31:25;;;;;;;6.38;1.98;;;;;;;;;;5020782;28;20026;-80
2023/03/16 05:33:52;;;;;;;7.18;2.00;;;;;;;;;;5019995;28;20026;-79
2023/03/16 05:36:18;;;;;;;9.73;2.45;;;;;;;;;;5019741;28;20026;-79
2023/03/16 05:38:46;;;;;;;3.30;1.85;;;;;;;;;;5019976;28;20025;-79
2023/03/16 05:41:13;;;;;;;3.72;1.98;;;;;;;;;;5019633;28;20053;-80
2023/03/16 05:43:39;;;;;;;4.93;1.63;;;;;;;;;;5019248;28;20064;-80
2023/03/16 05:46:05;;;;;;;7.30;2.38;;;;;;;;;;5001565;28;20026;-79
2023/03/16 05:48:34;;;;;;;3.60;1.95;;;;;;;;;;5000480;28;20037;-79
2023/03/16 05:51:01;;;;;;;6.88;1.98;;;;;;;;;;4997397;28;20019;-80
2023/03/16 05:53:28;;;;;;;6.95;2.10;;;;;;;;;;4999276;28;20029;-78
2023/03/16 05:55:54;;;;;;;4.65;1.98;;;;;;;;;;4998952;28;20077;-79
2023/03/16 05:58:20;;;;;;;4.18;2.00;;;;;;;;;;4998919;28;20430;-80
2023/03/16 06:00:46;;;;;;;7.13;2.10;;;;;;;;;;4999121;28;20050;-79
2023/03/16 06:06:16;;;;;;;4.53;2.78;;;;;;;;;;5015204;28;20052;-78
2023/03/16 06:08:43;;;;;;;3.78;1.73;;;;;;;;;;5001335;28;20029;-80
2023/03/16 06:11:10;;;;;;;6.30;2.00;;;;;;;;;;5001160;28;20029;-78
2023/03/16 06:13:36;;;;;;;1.90;1.60;;;;;;;;;;5018890;28;20030;-79
2023/03/16 06:19:06;;;;;;;5.03;1.70;;;;;;;;;;5001837;28;20040;-79
2023/03/16 06:21:32;;;;;;;1.92;1.50;;;;;;;;;;5004067;28;20030;-80
2023/03/16 06:24:00;;;;;;;2.50;2.03;;;;;;;;;;4999890;28;20065;-80
2023/03/16 06:29:30;;;;;;;3.72;1.60;;;;;;;;;;5019079;28;20101;-78
2023/03/16 06:31:56;;;;;;;1.95;1.55;;;;;;;;;;5004011;28;20441;-80
2023/03/16 06:37:26;;;;;;;2.97;1.70;;;;;;;;;;5019949;28;20052;-80
2023/03/16 06:39:52;;;;;;;3.72;2.03;;;;;;;;;;5018830;28;20029;-79
2023/03/16 06:42:19;;;;;;;3.05;2.60;;;;;;;;;;5018964;28;20076;-80
2023/03/16 06:44:45;;;;;;;3.35;1.95;;;;;;;;;;4992912;28;20037;-79
2023/03/16 06:50:15;;;;;;;1.92;1.83;;;;;;;;;;5000353;28;20054;-80
2023/03/16 06:52:41;;;;;;;1.35;1.25;;;;;;;;;;5019061;28;20593;-79
2023/03/16 06:55:08;;;;;;;4.72;1.88;;;;;;;;;;5019454;28;20057;-80
2023/03/16 06:57:34;;;;;;;1.40;1.30;;;;;;;;;;5020760;28;20037;-80
2023/03/16 07:00:02;;;;;;;3.75;1.80;;;;;;;;;;5019879;28;20026;-80
2023/03/16 07:02:28;;;;;;;1.30;1.27;;;;;;;;;;5002341;28;20053;-80
2023/03/16 07:04:54;;;;;;;3.08;1.73;;;;;;;;;;5019281;28;20019;-79
2023/03/16 07:07:20;;;;;;;1.67;1.50;;;;;;;;;;5001666;28;20018;-80
2023/03/16 07:09:47;;;;;;;3.28;1.35;;;;;;;;;;5019650;28;20160;-79
2023/03/16 07:12:13;;;;;;;2.80;1.50;;;;;;;;;;5020119;28;20044;-80
2023/03/16 07:14:40;;;;;;;1.65;1.27;;;;;;;;;;5002368;28;20018;-80
2023/03/16 07:17:07;;;;;;;1.38;1.27;;;;;;;;;;5020095;28;20386;-80
2023/03/16 07:19:33;;;;;;;2.55;1.90;;;;;;;;;;5002163;28;20025;-79
2023/03/16 07:25:03;;;;;;;3.53;1.23;;;;;;;;;;5040165;28;20024;-81
2023/03/16 07:27:30;;;;;;;1.10;0.98;;;;;;;;;;5011547;28;20545;-80
2023/03/16 07:33:00;;;;;;;1.20;1.20;;;;;;;;;;5012557;28;20058;-81
2023/03/16 07:35:27;;;;;;;1.02;1.02;;;;;;;;;;4992055;28;20037;-81
2023/03/16 07:37:53;;;;;;;1.33;1.20;;;;;;;;;;5027100;28;20376;-80
2023/03/16 07:40:20;;;;;;;1.65;1.13;;;;;;;;;;5016947;28;20041;-81
2023/03/16 07:42:47;;;;;;;1.25;1.13;;;;;;;;;;5009680;28;20047;-81
2023/03/16 07:45:13;;;;;;;1.00;1.00;;;;;;;;;;5013709;28;20034;-81
2023/03/16 07:47:40;;;;;;;0.93;0.93;;;;;;;;;;5009374;28;20037;-81
2023/03/16 07:50:08;;;;;;;2.50;1.30;;;;;;;;;;4994059;28;20022;-81
2023/03/16 07:52:34;;;;;;;1.52;1.42;;;;;;;;;;5010937;28;20034;-81
2023/03/16 07:55:02;;;;;;;1.20;1.20;;;;;;;;;;5012906;28;20026;-80
2023/03/16 07:57:28;;;;;;;1.60;1.20;;;;;;;;;;4995216;28;20019;-81
2023/03/16 07:59:58;;;;;;;1.35;1.30;;;;;;;;;;5008675;28;20030;-79
2023/03/16 08:02:25;;;;;;;1.60;1.40;;;;;;;;;;5006800;28;20502;-79
2023/03/16 08:04:51;;;;;;;2.60;1.30;;;;;;;;;;5004992;28;20034;-80
2023/03/16 08:07:19;;;;;;;1.58;1.48;;;;;;;;;;5007601;28;20019;-79
2023/03/16 08:09:45;;;;;;;1.23;1.13;;;;;;;;;;5005412;28;20507;-80
2023/03/16 08:12:11;;;;;;;1.40;1.30;;;;;;;;;;5005919;28;20014;-79
2023/03/16 08:14:38;;;;;;;3.50;1.23;;;;;;;;;;5008293;28;20105;-79
2023/03/16 08:17:04;;;;;;;1.10;1.00;;;;;;;;;;4991765;28;20018;-79
2023/03/16 08:19:31;;;;;;;1.40;1.30;;;;;;;;;;4987346;28;20033;-79
2023/03/16 08:21:59;;;;;;;2.78;1.40;;;;;;;;;;4999984;28;20033;-79
2023/03/16 08:24:39;;;;;;;1.67;1.40;;;;;;;;;;5006870;28;20027;-79
2023/03/16 08:27:05;;;;;;;2.88;1.60;;;;;;;;;;5008908;28;20117;-81
2023/03/16 08:29:36;;;;;;;1.40;1.30;;;;;;;;;;5000383;28;20022;-81
2023/03/16 08:35:08;;;;;;;2.20;1.40;;;;;;;;;;4990950;28;20026;-81
2023/03/16 08:40:46;;;;;;;1.55;1.35;;;;;;;;;;4989020;28;20022;-81
2023/03/16 08:43:14;;;;;;;1.30;1.30;;;;;;;;;;4995598;28;20117;-80
2023/03/16 08:45:43;;;;;;;3.20;1.77;;;;;;;;;;5005387;28;20026;-79
2023/03/16 08:51:08;;;;;;;2.42;1.42;;;;;;;;;;4992316;28;20085;-79
2023/03/16 08:53:35;;;;;;;2.20;2.00;;;;;;;;;;4998262;28;20030;-79
2023/03/16 08:56:07;;;;;;;1.50;1.40;;;;;;;;;;5001057;28;20034;-79
2023/03/16 08:58:34;;;;;;;1.88;1.50;;;;;;;;;;4999442;28;20073;-78
2023/03/16 09:01:01;;;;;;;1.33;1.23;;;;;;;;;;4989185;28;20093;-77
2023/03/16 09:03:29;;;;;;;3.13;1.40;;;;;;;;;;4995978;28;20164;-79
2023/03/16 09:06:01;;;;;;;1.50;1.40;;;;;;;;;;4999586;28;20065;-78
2023/03/16 09:08:28;;;;;;;2.00;1.80;;;;;;;;;;4998745;28;20119;-78
2023/03/16 09:11:01;;;;;;;1.92;1.55;;;;;;;;;;5003055;28;20475;-79
2023/03/16 09:13:41;;;;;;;2.55;1.90;;;;;;;;;;5002836;28;20035;-84
2023/03/16 09:16:09;;;;;;;1.50;1.35;;;;;;;;;;4996541;28;20029;-78
2023/03/16 09:18:35;;;;;;;1.65;1.55;;;;;;;;;;5002575;28;20085;-76
2023/03/16 09:21:06;;;;;;;2.08;1.80;;;;;;;;;;4994198;28;20101;-77
2023/03/16 09:23:33;;;;;;;1.42;1.33;;;;;;;;;;5002916;28;20026;-78
2023/03/16 09:26:02;;;;;;;2.00;1.45;;;;;;;;;;5002330;28;20383;-78
2023/03/16 09:28:28;;;;;;;2.03;1.50;;;;;;;;;;4987607;28;20500;-78
2023/03/16 09:30:56;;;;;;;2.05;1.27;;;;;;;;;;4999377;28;20033;-76
2023/03/16 09:33:23;;;;;;;1.50;1.40;;;;;;;;;;5004708;28;20022;-78
2023/03/16 09:35:50;;;;;;;1.60;1.50;;;;;;;;;;4990144;28;20078;-77
2023/03/16 09:38:17;;;;;;;1.58;1.48;;;;;;;;;;4998312;28;20034;-78
2023/03/16 09:40:44;;;;;;;2.22;1.60;;;;;;;;;;5000229;28;20423;-78
2023/03/16 09:43:15;;;;;;;1.77;1.60;;;;;;;;;;5015819;28;20056;-78
2023/03/16 09:45:48;;;;;;;1.85;1.33;;;;;;;;;;5011183;28;20408;-78
2023/03/16 09:48:15;;;;;;;1.40;1.30;;;;;;;;;;5015290;28;20018;-78
2023/03/16 09:50:42;;;;;;;1.23;1.23;;;;;;;;;;5017215;28;20025;-79
2023/03/16 09:53:14;;;;;;;1.13;1.10;;;;;;;;;;5019655;28;20030;-78
2023/03/16 09:55:42;;;;;;;1.38;1.25;;;;;;;;;;4998131;28;20379;-79
2023/03/16 09:58:19;;;;;;;1.10;1.10;;;;;;;;;;5017336;28;20065;-78
2023/03/16 10:01:06;;;;;;;1.50;1.40;;;;;;;;;;5020737;28;20061;-77
2023/03/16 10:03:32;;;;;;;2.92;1.50;;;;;;;;;;5021252;28;20509;-77
2023/03/16 10:06:01;;;;;;;3.25;1.55;;;;;;;;;;5021730;28;20386;-76
2023/03/16 10:08:38;;;;;;;1.70;1.60;;;;;;;;;;5016118;28;20375;-79
2023/03/16 10:11:19;;;;;;;1.52;1.42;;;;;;;;;;5003911;28;20022;-78
2023/03/16 10:14:06;;;;;;;1.58;1.40;;;;;;;;;;5028778;28;20018;-80
2023/03/16 10:16:33;;;;;;;;;;;;;;;;;;5017398;28;20034;-81
2023/03/16 10:19:07;;;;;;;3.00;1.50;;;;;;;;;;5030103;28;19914;-79
2023/03/16 10:21:59;;;;;;;3.65;1.70;;;;;;;;;;5028071;28;20045;-81
2023/03/16 10:24:58;;;;;;;1.85;1.52;;;;;;;;;;5030339;28;20049;-81
2023/03/16 10:27:29;;;;;;;2.40;1.73;;;;;;;;;;4986288;28;20042;-82
2023/03/16 10:30:02;;;;;;;4.65;1.70;;;;;;;;;;5030995;28;20026;-80
2023/03/16 10:32:35;;;;;;;1.98;1.40;;;;;;;;;;5003099;28;20034;-82
2023/03/16 10:35:07;;;;;;;1.52;1.30;;;;;;;;;;5035253;28;20060;-84
2023/03/16 10:37:33;;;;;;;1.20;1.20;;;;;;;;;;5031359;28;20030;-79
2023/03/16 10:40:07;;;;;;;2.28;1.38;;;;;;;;;;5034881;28;20033;-85
2023/03/16 10:42:44;;;;;;;1.40;1.30;;;;;;;;;;5034483;28;20038;-88
2023/03/16 10:45:24;;;;;;;2.83;1.50;;;;;;;;;;5031590;28;20033;-89
2023/03/16 10:47:50;;;;;;;1.85;1.58;;;;;;;;;;5025475;28;20415;-88
2023/03/16 10:50:23;;;;;;;1.27;1.25;;;;;;;;;;5026412;28;20022;-89
2023/03/16 10:52:54;;;;;;;1.50;1.38;;;;;;;;;;5027323;28;20034;-92
2023/03/16 10:55:27;;;;;;;1.95;1.30;;;;;;;;;;5025069;28;20038;-92
2023/03/16 10:57:55;;;;;;;1.70;1.60;;;;;;;;;;5010473;28;20022;-91
2023/03/16 11:00:27;;;;;;;1.60;1.50;;;;;;;;;;5030640;28;20034;-88
2023/03/16 11:02:55;;;;;;;3.25;1.50;;;;;;;;;;5013571;28;20105;-88
2023/03/16 11:05:38;;;;;;;2.78;1.52;;;;;;;;;;5024254;28;20094;-86
2023/03/16 11:08:04;;;;;;;2.58;1.52;;;;;;;;;;5038112;28;20022;-85
2023/03/16 11:10:35;;;;;;;1.60;1.30;;;;;;;;;;5014441;28;20026;-85
2023/03/16 11:13:14;;;;;;;1.25;1.25;;;;;;;;;;5032760;28;20030;-85
2023/03/16 11:15:57;;;;;;;1.88;1.40;;;;;;;;;;5025206;28;20087;-85
2023/03/16 11:18:23;;;;;;;1.40;1.30;;;;;;;;;;5013682;28;20030;-86
2023/03/16 11:20:51;;;;;;;1.20;1.20;;;;;;;;;;5027403;28;20022;-88
2023/03/16 11:23:20;;;;;;;1.17;1.17;;;;;;;;;;5024427;28;20036;-85
2023/03/16 11:25:48;;;;;;;1.42;1.40;;;;;;;;;;5025610;28;20105;-90
2023/03/16 11:28:18;;;;;;;1.85;1.30;;;;;;;;;;5020723;28;20422;-85
2023/03/16 11:31:03;;;;;;;1.42;1.33;;;;;;;;;;5004633;28;20041;-88
2023/03/16 11:33:29;;;;;;;1.38;1.33;;;;;;;;;;4999760;28;20026;-87
2023/03/16 11:35:56;;;;;;;1.48;1.38;;;;;;;;;;5018760;28;20381;-87
2023/03/16 11:38:46;;;;;;;1.00;1.00;;;;;;;;;;4999235;28;20030;-87
2023/03/16 11:41:41;;;;;;;3.17;1.52;;;;;;;;;;5020627;28;20064;-89
2023/03/16 11:44:26;;;;;;;2.55;1.20;;;;;;;;;;5000857;28;20060;-88
2023/03/16 11:47:15;;;;;;;1.30;1.30;;;;;;;;;;5014622;28;20033;-88
2023/03/16 11:49:44;;;;;;;3.08;1.65;;;;;;;;;;4990814;28;20038;-88
2023/03/16 11:52:16;;;;;;;1.60;1.50;;;;;;;;;;5002082;28;20030;-87
2023/03/16 11:54:55;;;;;;;1.27;1.27;;;;;;;;;;5003373;28;20045;-89
2023/03/16 11:57:43;;;;;;;1.20;1.20;;;;;;;;;;5016807;28;20036;-88
2023/03/16 12:00:28;;;;;;;1.30;1.20;;;;;;;;;;5000862;28;20026;-89
2023/03/16 12:03:00;;;;;;;1.48;1.38;;;;;;;;;;5018272;28;20033;-87
2023/03/16 12:05:33;;;;;;;1.38;1.30;;;;;;;;;;5017334;28;20030;-86
2023/03/16 12:08:15;;;;;;;1.40;1.30;;;;;;;;;;5018363;28;20013;-90
2023/03/16 12:10:58;;;;;;;1.20;1.20;;;;;;;;;;4999728;28;20256;-89
2023/03/16 12:13:32;;;;;;;2.58;1.48;;;;;;;;;;5017256;28;20030;-90
2023/03/16 12:16:09;;;;;;;1.40;1.30;;;;;;;;;;4999347;28;20065;-90
2023/03/16 12:18:40;;;;;;;1.50;1.40;;;;;;;;;;5004226;28;20176;-87
2023/03/16 12:21:11;;;;;;;1.58;1.45;;;;;;;;;;5022450;28;20033;-87
2023/03/16 12:23:46;;;;;;;2.30;1.40;;;;;;;;;;5015882;28;20029;-89
2023/03/16 12:26:13;;;;;;;1.40;1.30;;;;;;;;;;4988538;28;20463;-88
2023/03/16 12:28:41;;;;;;;2.30;1.40;;;;;;;;;;5020276;28;20360;-89
2023/03/16 12:31:13;;;;;;;2.35;1.30;;;;;;;;;;5003059;28;20022;-89
2023/03/16 12:33:58;;;;;;;2.05;1.70;;;;;;;;;;5013223;28;20080;-88
2023/03/16 12:36:24;;;;;;;1.67;1.40;;;;;;;;;;5016570;28;20061;-88
2023/03/16 12:38:52;;;;;;;2.28;1.92;;;;;;;;;;4997175;28;20030;-87
2023/03/16 12:41:42;;;;;;;1.60;1.50;;;;;;;;;;4996221;28;20040;-87
2023/03/16 12:44:12;;;;;;;1.77;1.40;;;;;;;;;;5012380;28;20066;-87
2023/03/16 12:46:38;;;;;;;1.65;1.55;;;;;;;;;;5006582;28;20422;-87
2023/03/16 12:49:05;;;;;;;2.22;1.80;;;;;;;;;;4995235;28;20107;-88
2023/03/16 12:51:32;;;;;;;3.53;1.60;;;;;;;;;;4993461;28;20022;-88
2023/03/16 12:54:01;;;;;;;2.15;1.50;;;;;;;;;;4998117;28;20032;-88
2023/03/16 12:56:44;;;;;;;3.08;1.63;;;;;;;;;;4998688;28;21128;-89
2023/03/16 12:59:16;;;;;;;1.70;1.60;;;;;;;;;;4998445;28;20118;-89
2023/03/16 13:01:43;;;;;;;2.83;1.58;;;;;;;;;;5012150;28;20584;-87
2023/03/16 13:04:12;;;;;;;2.10;1.60;;;;;;;;;;4998506;28;20026;-88
2023/03/16 13:06:42;;;;;;;2.95;1.52;;;;;;;;;;4996971;28;20036;-87
2023/03/16 13:09:10;;;;;;;2.92;1.42;;;;;;;;;;5010967;28;20101;-88
2023/03/16 13:11:49;;;;;;;2.45;2.00;;;;;;;;;;4996802;28;20471;-87
2023/03/16 13:14:35;;;;;;;3.90;1.60;;;;;;;;;;4994057;28;20061;-88
2023/03/16 13:17:06;;;;;;;2.15;1.60;;;;;;;;;;5006732;28;20113;-88
2023/03/16 13:19:36;;;;;;;1.50;1.40;;;;;;;;;;5008454;28;20038;-89
2023/03/16 13:22:18;;;;;;;1.40;1.30;;;;;;;;;;4993448;28;20022;-89
2023/03/16 13:24:50;;;;;;;2.15;1.60;;;;;;;;;;5009266;28;20398;-87
2023/03/16 13:27:25;;;;;;;1.30;1.20;;;;;;;;;;4997017;28;20026;-88
2023/03/16 13:29:52;;;;;;;;;;;;;;;;;;5009020;28;20026;-88
2023/03/16 13:32:21;;;;;;;3.20;1.75;;;;;;;;;;4994267;28;19917;-88
2023/03/16 13:34:52;;;;;;;2.47;1.80;;;;;;;;;;4985676;28;20046;-87
2023/03/16 13:37:19;;;;;;;1.55;1.38;;;;;;;;;;4992396;28;20057;-86
2023/03/16 13:39:57;;;;;;;3.15;1.60;;;;;;;;;;5013941;28;20031;-87
2023/03/16 13:42:24;;;;;;;1.60;1.50;;;;;;;;;;5010683;28;20042;-85
2023/03/16 13:44:57;;;;;;;2.15;1.40;;;;;;;;;;4990436;28;20031;-81
2023/03/16 13:47:25;;;;;;;1.85;1.50;;;;;;;;;;5008340;28;20121;-91
2023/03/16 13:49:57;;;;;;;1.48;1.30;;;;;;;;;;5014766;28;20080;-89
2023/03/16 13:52:30;;;;;;;2.35;1.40;;;;;;;;;;4995483;28;20668;-87
2023/03/16 13:54:58;;;;;;;2.50;1.60;;;;;;;;;;4993166;28;20026;-86
2023/03/16 13:57:26;;;;;;;1.90;1.50;;;;;;;;;;4993165;28;20034;-88
2023/03/16 14:00:00;;;;;;;2.80;1.73;;;;;;;;;;5008171;28;20022;-87
2023/03/16 14:02:26;;;;;;;4.00;1.60;;;;;;;;;;5005091;28;20025;-87
2023/03/16 14:04:52;;;;;;;2.13;1.70;;;;;;;;;;4997578;28;20022;-86
2023/03/16 14:07:19;;;;;;;1.70;1.60;;;;;;;;;;4986343;28;20427;-87
2023/03/16 14:09:48;;;;;;;3.92;2.13;;;;;;;;;;4991295;28;20033;-86
2023/03/16 14:12:15;;;;;;;3.88;1.80;;;;;;;;;;4991127;28;20395;-86
2023/03/16 14:14:41;;;;;;;2.38;2.08;;;;;;;;;;5008813;28;20024;-85
2023/03/16 14:17:12;;;;;;;2.30;1.67;;;;;;;;;;4989403;28;20529;-86
2023/03/16 14:19:58;;;;;;;2.03;1.90;;;;;;;;;;4989395;28;20605;-85
2023/03/16 14:22:30;;;;;;;3.95;1.60;;;;;;;;;;5002503;28;20030;-85
2023/03/16 14:24:59;;;;;;;5.15;2.47;;;;;;;;;;5003601;28;20375;-85
2023/03/16 14:27:31;;;;;;;2.33;1.60;;;;;;;;;;5003725;28;20025;-85
2023/03/16 14:30:03;;;;;;;2.10;1.58;;;;;;;;;;4991666;28;20025;-86
2023/03/16 14:32:32;;;;;;;2.70;1.70;;;;;;;;;;4991039;28;20025;-86
2023/03/16 14:35:12;;;;;;;2.97;1.73;;;;;;;;;;5003672;28;20103;-86
2023/03/16 14:37:39;;;;;;;2.58;1.40;;;;;;;;;;5005289;28;20872;-85
2023/03/16 14:40:08;;;;;;;2.35;1.48;;;;;;;;;;4990861;28;20033;-85
2023/03/16 14:42:34;;;;;;;3.40;1.80;;;;;;;;;;4990552;28;20069;-85
2023/03/16 14:45:06;;;;;;;4.43;1.80;;;;;;;;;;4989032;28;20490;-86
2023/03/16 14:47:40;;;;;;;1.52;1.42;;;;;;;;;;4988383;28;20537;-85
2023/03/16 14:50:08;;;;;;;2.50;1.60;;;;;;;;;;4992152;28;20097;-88
2023/03/16 14:52:36;;;;;;;1.60;1.30;;;;;;;;;;4991712;28;20042;-88
2023/03/16 14:55:09;;;;;;;2.38;1.83;;;;;;;;;;5004763;28;20053;-90
2023/03/16 14:57:35;;;;;;;2.50;1.50;;;;;;;;;;5006875;28;20030;-90
2023/03/16 15:00:03;;;;;;;1.83;1.42;;;;;;;;;;5010404;28;20079;-87
2023/03/16 15:02:30;;;;;;;1.83;1.52;;;;;;;;;;4991452;28;20038;-86
2023/03/16 15:04:57;;;;;;;1.77;1.67;;;;;;;;;;4990581;28;20041;-88
2023/03/16 15:07:25;;;;;;;2.83;1.50;;;;;;;;;;5008283;28;20030;-89
2023/03/16 15:09:52;;;;;;;2.42;1.65;;;;;;;;;;4991073;28;20022;-89
2023/03/16 15:12:19;;;;;;;1.58;1.48;;;;;;;;;;5006096;28;20022;-85
2023/03/16 15:17:31;;;;;;;5.25;1.98;;;;;;;;;;5007390;28;20513;-90
2023/03/16 15:19:57;;;;;;;2.00;1.50;;;;;;;;;;5006216;28;20169;-89
2023/03/16 15:22:28;;;;;;;2.22;1.75;;;;;;;;;;4995238;28;20042;-92
2023/03/16 15:24:54;;;;;;;1.73;1.63;;;;;;;;;;4995973;28;20034;-90
2023/03/16 15:27:23;;;;;;;2.75;1.60;;;;;;;;;;5010438;28;20034;-89
2023/03/16 15:29:49;;;;;;;1.70;1.60;;;;;;;;;;5006715;28;20117;-90
2023/03/16 15:32:15;;;;;;;3.50;2.03;;;;;;;;;;4990204;28;20030;-89
2023/03/16 15:34:46;;;;;;;3.65;1.60;;;;;;;;;;5010740;28;20061;-89
2023/03/16 15:37:14;;;;;;;5.05;1.70;;;;;;;;;;4990210;28;20106;-88
2023/03/16 15:39:40;;;;;;;5.60;2.22;;;;;;;;;;4989535;28;20041;-84
2023/03/16 15:42:17;;;;;;;1.60;1.50;;;;;;;;;;4987549;28;20044;-88
2023/03/16 15:44:43;;;;;;;3.67;1.52;;;;;;;;;;5005218;28;20092;-84
2023/03/16 15:47:10;;;;;;;4.63;2.15;;;;;;;;;;4988711;28;20562;-86
2023/03/16 15:49:37;;;;;;;4.97;2.58;;;;;;;;;;4995953;28;20090;-87
2023/03/16 15:52:06;;;;;;;3.53;1.70;;;;;;;;;;5018779;28;20018;-88
2023/03/16 15:54:32;;;;;;;4.57;2.25;;;;;;;;;;5018264;28;20029;-91
2023/03/16 15:56:58;;;;;;;4.97;2.00;;;;;;;;;;5022776;28;20040;-91